Time;durP1;ratioP1;P1;durP2;ratioP2;P2;SDS_P1;SDS_P2;PMS_P1;PMS_P2;Temp;Humidity;BMP_temperature;BMP_pressure;BME280_temperature;BME280_humidity;BME280_pressure;Samples;Min_cycle;Max_cycle;Signal;HPM_P1;HPM_P2
2022/09/25 00:01:35;;;;;;;15.53;14.07;;;13.70;99.90;;;;;;5138912;27;20175;-47
2022/09/25 00:04:01;;;;;;;15.80;14.30;;;13.70;99.90;;;;;;5138241;27;20181;-46
2022/09/25 00:06:28;;;;;;;14.87;13.47;;;13.70;99.90;;;;;;5137011;27;20482;-47
2022/09/25 00:08:54;;;;;;;15.10;13.70;;;13.70;99.90;;;;;;5136887;27;20823;-47
2022/09/25 00:11:26;;;;;;;16.47;14.87;;;13.70;99.90;;;;;;5137120;27;20423;-47
2022/09/25 00:13:53;;;;;;;16.23;14.73;;;13.70;99.90;;;;;;5119523;27;20221;-48
2022/09/25 00:16:23;;;;;;;15.30;13.90;;;13.70;99.90;;;;;;5138514;27;20414;-46
2022/09/25 00:21:34;;;;;;;15.70;14.20;;;13.70;99.90;;;;;;5138433;27;20415;-45
2022/09/25 00:24:02;;;;;;;14.47;13.07;;;13.70;99.90;;;;;;5138890;27;20425;-46
2022/09/25 00:26:29;;;;;;;15.10;13.00;;;13.70;99.90;;;;;;5139090;27;20410;-46
2022/09/25 00:28:55;;;;;;;14.60;13.20;;;13.70;99.90;;;;;;5138782;27;20472;-44
2022/09/25 00:31:23;;;;;;;16.70;15.10;;;13.70;99.90;;;;;;5119744;27;20406;-48
2022/09/25 00:33:52;;;;;;;16.03;14.53;;;13.70;99.90;;;;;;5138813;27;20423;-45
2022/09/25 00:36:19;;;;;;;16.77;15.17;;;13.70;99.90;;;;;;5138244;27;20771;-46
2022/09/25 00:38:47;;;;;;;14.80;13.40;;;13.70;99.90;;;;;;5137801;27;20482;-47
2022/09/25 00:41:14;;;;;;;15.80;14.27;;;13.70;99.90;;;;;;5136377;27;20411;-47
2022/09/25 00:43:41;;;;;;;16.83;15.13;;;13.70;99.90;;;;;;5119723;27;20844;-45
2022/09/25 00:46:19;;;;;;;15.77;14.27;;;13.70;99.90;;;;;;5137135;27;20827;-46
2022/09/25 00:48:48;;;;;;;16.63;14.87;;;13.70;99.90;;;;;;5136498;27;20468;-47
2022/09/25 00:51:14;;;;;;;16.10;14.60;;;13.70;99.90;;;;;;5137686;27;20472;-46
2022/09/25 00:53:40;;;;;;;14.83;13.53;;;13.70;99.90;;;;;;5135948;27;20694;-46
2022/09/25 00:56:06;;;;;;;17.63;15.23;;;13.70;99.90;;;;;;5138126;27;20475;-46
2022/09/25 00:58:33;;;;;;;17.30;15.60;;;13.70;99.90;;;;;;5119321;27;20175;-46
2022/09/25 01:00:59;;;;;;;17.20;15.40;;;13.70;99.90;;;;;;5137576;27;20432;-45
2022/09/25 01:03:26;;;;;;;16.50;14.80;;;13.70;99.90;;;;;;5138456;27;20498;-46
2022/09/25 01:05:53;;;;;;;17.60;15.80;;;13.70;99.90;;;;;;5119390;27;20317;-45
2022/09/25 01:08:21;;;;;;;16.90;15.20;;;13.70;99.90;;;;;;5118565;27;20413;-46
2022/09/25 01:10:47;;;;;;;18.17;16.23;;;13.70;99.90;;;;;;5136365;27;20433;-48
2022/09/25 01:13:14;;;;;;;17.10;15.30;;;13.70;99.90;;;;;;5135062;27;20747;-45
2022/09/25 01:16:03;;;;;;;17.83;16.03;;;13.60;99.90;;;;;;5135448;27;20187;-47
2022/09/25 01:19:02;;;;;;;15.23;13.63;;;13.70;99.90;;;;;;5117540;28;20473;-45
2022/09/25 01:21:47;;;;;;;15.17;13.60;;;13.70;99.90;;;;;;5136649;27;20425;-44
2022/09/25 01:24:41;;;;;;;15.10;13.57;;;13.60;99.90;;;;;;5137523;27;20426;-46
2022/09/25 01:27:25;;;;;;;14.17;12.73;;;13.70;99.90;;;;;;5135667;27;20428;-45
2022/09/25 01:29:55;;;;;;;15.43;13.90;;;13.60;99.90;;;;;;5118155;28;20473;-45
2022/09/25 01:32:48;;;;;;;14.47;13.10;;;13.70;99.90;;;;;;5136663;28;20414;-46
2022/09/25 01:35:19;;;;;;;13.50;12.10;;;13.60;99.90;;;;;;5099379;28;20440;-46
2022/09/25 01:37:55;;;;;;;14.00;12.60;;;13.60;99.90;;;;;;5135859;28;20412;-46
2022/09/25 01:40:32;;;;;;;14.50;13.07;;;13.60;99.90;;;;;;5134253;28;20415;-46
2022/09/25 01:43:15;;;;;;;14.43;13.03;;;13.60;99.90;;;;;;5099238;28;20807;-46
2022/09/25 01:45:59;;;;;;;14.70;13.20;;;13.60;99.90;;;;;;5134464;28;20850;-46
2022/09/25 01:48:29;;;;;;;13.90;12.43;;;13.60;99.90;;;;;;5100731;28;20424;-47
2022/09/25 01:51:03;;;;;;;14.33;12.87;;;13.70;99.90;;;;;;5134649;28;20431;-45
2022/09/25 01:53:33;;;;;;;15.37;13.77;;;13.60;99.90;;;;;;5120639;27;20424;-50
2022/09/25 01:56:06;;;;;;;14.70;13.30;;;13.60;99.90;;;;;;5124103;27;20882;-44
2022/09/25 01:58:42;;;;;;;15.47;13.87;;;13.60;99.90;;;;;;5140316;27;20538;-45
2022/09/25 02:01:11;;;;;;;16.00;14.40;;;13.60;99.90;;;;;;5139470;27;20425;-47
2022/09/25 02:03:43;;;;;;;15.50;13.90;;;13.60;99.90;;;;;;5120916;27;20669;-48
2022/09/25 02:06:14;;;;;;;16.77;14.97;;;13.60;99.90;;;;;;5120584;27;20410;-45
2022/09/25 02:08:44;;;;;;;15.80;14.20;;;13.60;99.90;;;;;;5120221;27;20466;-48
2022/09/25 02:11:11;;;;;;;15.13;13.63;;;13.70;99.90;;;;;;5121386;27;20520;-45
2022/09/25 02:14:09;;;;;;;16.33;14.67;;;13.70;99.90;;;;;;5139367;27;20461;-45
2022/09/25 02:16:37;;;;;;;17.13;15.43;;;13.60;99.90;;;;;;5141203;27;20828;-44
2022/09/25 02:21:53;;;;;;;17.00;15.13;;;13.70;99.90;;;;;;5140861;27;20473;-45
2022/09/25 02:24:35;;;;;;;16.20;14.60;;;13.70;99.90;;;;;;5140338;27;20418;-47
2022/09/25 02:27:01;;;;;;;15.17;13.77;;;13.70;99.90;;;;;;5122601;27;20423;-46
2022/09/25 02:29:28;;;;;;;15.20;13.60;;;13.60;99.90;;;;;;5122636;27;20479;-45
2022/09/25 02:31:58;;;;;;;14.50;13.00;;;13.60;99.90;;;;;;5140347;27;20493;-48
2022/09/25 02:34:24;;;;;;;14.30;12.97;;;13.60;99.90;;;;;;5141172;27;20406;-45
2022/09/25 02:36:49;;;;;;;14.80;13.40;;;13.60;99.90;;;;;;5141008;27;20494;-46
2022/09/25 02:39:17;;;;;;;12.97;11.77;;;13.60;99.90;;;;;;5140649;27;20568;-44
2022/09/25 02:42:04;;;;;;;15.10;13.63;;;13.60;99.90;;;;;;5139773;27;20598;-46
2022/09/25 02:44:55;;;;;;;14.57;13.07;;;13.60;99.90;;;;;;5140977;27;20405;-45
2022/09/25 02:47:44;;;;;;;13.80;12.50;;;13.60;99.90;;;;;;5140925;27;20402;-47
2022/09/25 02:50:46;;;;;;;14.20;12.70;;;13.60;99.90;;;;;;5141596;27;20488;-45
2022/09/25 02:53:14;;;;;;;14.60;13.20;;;13.60;99.90;;;;;;5140932;27;20686;-47
2022/09/25 02:55:45;;;;;;;15.60;14.10;;;13.60;99.90;;;;;;5141146;27;20470;-44
2022/09/25 02:58:32;;;;;;;15.83;13.40;;;13.70;99.90;;;;;;5122649;27;20411;-45
2022/09/25 03:00:59;;;;;;;15.37;13.80;;;13.60;99.90;;;;;;5141119;27;20431;-45
2022/09/25 03:03:25;;;;;;;15.77;14.20;;;13.70;99.90;;;;;;5139817;27;20419;-46
2022/09/25 03:05:54;;;;;;;14.73;13.00;;;13.60;99.90;;;;;;5122658;27;20456;-46
2022/09/25 03:08:36;;;;;;;15.93;14.40;;;13.60;99.90;;;;;;5140363;27;20492;-45
2022/09/25 03:11:10;;;;;;;16.10;14.47;;;13.60;99.90;;;;;;5124890;27;20791;-45
2022/09/25 03:13:36;;;;;;;13.33;12.03;;;13.60;99.90;;;;;;5122741;27;20431;-47
2022/09/25 03:16:14;;;;;;;13.63;12.23;;;13.60;99.90;;;;;;5141008;27;20424;-46
2022/09/25 03:18:39;;;;;;;13.63;12.33;;;13.60;99.90;;;;;;5140652;27;20491;-45
2022/09/25 03:21:05;;;;;;;13.70;12.50;;;13.60;99.90;;;;;;5140271;27;20409;-47
2022/09/25 03:23:31;;;;;;;12.87;11.67;;;13.60;99.90;;;;;;5139586;27;20564;-44
2022/09/25 03:25:57;;;;;;;13.10;11.80;;;13.50;99.90;;;;;;5122211;27;20182;-45
2022/09/25 03:28:23;;;;;;;11.80;10.70;;;13.50;99.90;;;;;;5139360;27;20181;-44
2022/09/25 03:31:01;;;;;;;11.20;10.20;;;13.50;99.90;;;;;;5139287;27;20448;-46
2022/09/25 03:33:33;;;;;;;12.40;11.30;;;13.50;99.90;;;;;;5140651;27;20416;-45
2022/09/25 03:36:00;;;;;;;11.20;10.10;;;13.50;99.90;;;;;;5140312;27;20725;-46
2022/09/25 03:38:25;;;;;;;11.93;10.73;;;13.50;99.90;;;;;;5139940;27;20428;-45
2022/09/25 03:40:51;;;;;;;12.03;10.77;;;13.50;99.90;;;;;;5139383;27;20415;-47
2022/09/25 03:43:17;;;;;;;12.07;10.87;;;13.50;99.90;;;;;;5138717;27;20179;-44
2022/09/25 03:45:42;;;;;;;11.27;9.70;;;13.50;99.90;;;;;;5139748;27;20268;-45
2022/09/25 03:48:08;;;;;;;10.30;9.40;;;13.50;99.90;;;;;;5139306;27;20824;-48
2022/09/25 03:50:33;;;;;;;12.13;10.93;;;13.50;99.90;;;;;;5121088;27;20217;-47
2022/09/25 03:52:59;;;;;;;10.67;9.67;;;13.50;99.90;;;;;;5139982;27;20185;-47
2022/09/25 03:55:24;;;;;;;11.27;10.27;;;13.40;99.90;;;;;;5138254;27;20237;-46
2022/09/25 03:57:50;;;;;;;10.43;9.53;;;13.40;99.90;;;;;;5138301;27;20239;-43
2022/09/25 04:00:16;;;;;;;11.53;10.43;;;13.40;99.90;;;;;;5139286;27;20199;-44
2022/09/25 04:02:42;;;;;;;10.90;9.47;;;13.40;99.90;;;;;;5137548;27;20253;-45
2022/09/25 04:05:08;;;;;;;10.27;9.27;;;13.40;99.90;;;;;;5138189;27;20437;-47
2022/09/25 04:07:34;;;;;;;11.20;9.90;;;13.40;99.90;;;;;;5138298;27;20785;-46
2022/09/25 04:10:00;;;;;;;11.40;10.30;;;13.40;99.90;;;;;;5138880;27;20475;-48
2022/09/25 04:12:25;;;;;;;10.23;9.20;;;13.40;99.90;;;;;;5139198;27;20180;-44
2022/09/25 04:14:51;;;;;;;10.90;9.83;;;13.40;99.90;;;;;;5140010;27;20190;-49
2022/09/25 04:17:17;;;;;;;9.70;8.80;;;13.40;99.90;;;;;;5139152;27;20350;-46
2022/09/25 04:19:42;;;;;;;11.57;10.47;;;13.40;99.90;;;;;;5139423;27;20521;-49
2022/09/25 04:22:08;;;;;;;10.00;9.00;;;13.40;99.90;;;;;;5139452;27;20262;-45
2022/09/25 04:24:49;;;;;;;10.93;9.90;;;13.40;99.90;;;;;;5137780;27;20187;-44
2022/09/25 04:27:17;;;;;;;10.20;9.30;;;13.40;99.90;;;;;;5138537;27;20275;-44
2022/09/25 04:29:43;;;;;;;10.73;9.70;;;13.40;99.90;;;;;;5138044;27;20474;-46
2022/09/25 04:34:52;;;;;;;9.70;8.80;;;13.40;99.90;;;;;;5138125;27;20550;-46
2022/09/25 04:37:21;;;;;;;9.80;8.90;;;13.40;99.90;;;;;;5137860;27;20453;-45
2022/09/25 04:39:47;;;;;;;10.63;9.73;;;13.30;99.90;;;;;;5138917;27;20633;-44
2022/09/25 04:42:12;;;;;;;10.27;9.37;;;13.30;99.90;;;;;;5139209;27;20414;-44
2022/09/25 04:44:38;;;;;;;10.10;9.20;;;13.30;99.90;;;;;;5139238;27;20189;-45
2022/09/25 04:47:03;;;;;;;11.00;9.90;;;13.30;99.90;;;;;;5137898;27;20281;-46
2022/09/25 04:49:29;;;;;;;9.83;8.93;;;13.30;99.90;;;;;;5138988;27;20274;-48
2022/09/25 04:51:55;;;;;;;10.37;9.47;;;13.30;99.90;;;;;;5139555;27;20260;-47
2022/09/25 04:54:21;;;;;;;8.90;8.10;;;13.30;99.90;;;;;;5132266;27;20230;-45
2022/09/25 04:56:47;;;;;;;9.77;8.87;;;13.30;99.90;;;;;;5118010;28;20423;-44
2022/09/25 04:59:15;;;;;;;10.27;9.37;;;13.30;99.90;;;;;;5116239;28;20892;-46
2022/09/25 05:01:41;;;;;;;9.63;8.73;;;13.40;99.90;;;;;;5115866;28;20187;-49
2022/09/25 05:04:06;;;;;;;10.90;9.83;;;13.30;99.90;;;;;;5115563;28;20517;-46
2022/09/25 05:06:32;;;;;;;9.67;8.77;;;13.30;99.90;;;;;;5116074;28;20184;-45
2022/09/25 05:08:58;;;;;;;9.90;9.00;;;13.30;99.90;;;;;;5117054;28;20217;-47
2022/09/25 05:11:24;;;;;;;15.47;9.67;;;13.30;99.90;;;;;;5117352;28;20212;-44
2022/09/25 05:13:50;;;;;;;9.73;8.83;;;13.30;99.90;;;;;;5117385;28;20181;-47
2022/09/25 05:16:16;;;;;;;10.73;9.63;;;13.30;99.90;;;;;;5122488;27;20787;-45
2022/09/25 05:18:41;;;;;;;10.20;9.23;;;13.20;99.90;;;;;;5119785;28;20541;-43
2022/09/25 05:21:07;;;;;;;11.00;9.90;;;13.20;99.90;;;;;;5138831;27;20202;-46
2022/09/25 05:23:33;;;;;;;10.10;9.17;;;13.20;99.90;;;;;;5138499;27;20187;-45
2022/09/25 05:26:01;;;;;;;11.53;10.33;;;13.20;99.90;;;;;;5132200;27;20195;-42
2022/09/25 05:28:27;;;;;;;11.13;10.13;;;13.20;99.90;;;;;;5117410;28;20482;-42
2022/09/25 05:30:53;;;;;;;10.13;9.13;;;13.20;99.90;;;;;;5117697;28;20847;-45
2022/09/25 05:33:19;;;;;;;10.17;9.27;;;13.20;99.90;;;;;;5115345;28;20439;-45
2022/09/25 05:35:47;;;;;;;10.80;9.70;;;13.20;99.90;;;;;;5115317;28;20179;-44
2022/09/25 05:38:12;;;;;;;10.03;9.03;;;13.20;99.90;;;;;;5117120;28;20501;-47
2022/09/25 05:40:38;;;;;;;8.97;8.10;;;13.20;99.90;;;;;;5116405;28;20537;-45
2022/09/25 05:43:04;;;;;;;8.50;7.67;;;13.20;99.90;;;;;;5116784;28;20625;-48
2022/09/25 05:45:30;;;;;;;10.00;9.10;;;13.20;99.90;;;;;;5116545;28;20234;-48
2022/09/25 05:48:01;;;;;;;9.50;8.60;;;13.20;99.90;;;;;;5117042;28;20429;-46
2022/09/25 05:50:27;;;;;;;8.63;7.83;;;13.20;99.90;;;;;;5100356;28;20223;-45
2022/09/25 05:53:01;;;;;;;10.87;9.77;;;13.20;99.90;;;;;;5116744;28;20411;-45
2022/09/25 05:55:27;;;;;;;10.40;9.50;;;13.30;99.90;;;;;;5116832;28;20488;-45
2022/09/25 05:57:53;;;;;;;10.83;9.83;;;13.30;99.90;;;;;;5117039;28;20432;-45
2022/09/25 06:00:19;;;;;;;9.97;9.07;;;13.30;99.90;;;;;;5117289;28;20414;-44
2022/09/25 06:02:44;;;;;;;10.50;9.50;;;13.30;99.90;;;;;;5117587;28;20260;-43
2022/09/25 06:05:10;;;;;;;11.97;10.80;;;13.30;99.90;;;;;;5115922;28;20610;-45
2022/09/25 06:07:36;;;;;;;10.50;9.60;;;13.40;99.90;;;;;;5118016;28;20188;-46
2022/09/25 06:10:02;;;;;;;11.30;10.30;;;13.40;99.90;;;;;;5117175;28;20473;-43
2022/09/25 06:12:28;;;;;;;9.20;8.30;;;13.40;99.90;;;;;;5099554;28;20435;-47
2022/09/25 06:14:54;;;;;;;10.27;9.27;;;13.50;99.90;;;;;;5117270;28;20410;-46
2022/09/25 06:17:20;;;;;;;9.23;8.33;;;13.50;99.90;;;;;;5116310;28;20535;-43
2022/09/25 06:19:46;;;;;;;8.67;7.90;;;13.60;99.90;;;;;;5096536;28;20418;-46
2022/09/25 06:22:11;;;;;;;9.40;8.50;;;13.60;99.90;;;;;;5115457;28;20227;-45
2022/09/25 06:24:37;;;;;;;8.93;8.10;;;13.60;99.90;;;;;;5115508;28;20414;-46
2022/09/25 06:27:04;;;;;;;8.80;8.00;;;13.70;99.90;;;;;;5115276;28;20514;-46
2022/09/25 06:29:30;;;;;;;8.73;7.90;;;13.70;99.90;;;;;;5097047;28;20208;-45
2022/09/25 06:31:56;;;;;;;9.17;8.37;;;13.80;99.90;;;;;;5115665;28;20434;-45
2022/09/25 06:34:21;;;;;;;8.80;8.00;;;13.90;99.90;;;;;;5116853;28;20172;-45
2022/09/25 06:36:47;;;;;;;9.33;8.33;;;13.90;99.90;;;;;;5115849;28;20557;-45
2022/09/25 06:39:13;;;;;;;9.20;7.90;;;14.00;99.90;;;;;;5117519;28;20176;-47
2022/09/25 06:41:40;;;;;;;9.90;8.93;;;14.00;99.90;;;;;;5119223;28;20268;-46
2022/09/25 06:44:07;;;;;;;8.77;7.87;;;14.10;99.90;;;;;;5117542;28;20180;-45
2022/09/25 06:46:34;;;;;;;9.17;8.27;;;14.10;99.90;;;;;;5115911;28;20429;-44
2022/09/25 06:49:00;;;;;;;12.10;9.40;;;14.20;99.90;;;;;;5097815;28;20565;-45
2022/09/25 06:51:30;;;;;;;10.00;9.00;;;14.20;99.90;;;;;;5117208;28;20922;-46
2022/09/25 06:53:56;;;;;;;10.40;9.40;;;14.20;99.90;;;;;;5116844;28;20191;-44
2022/09/25 06:56:21;;;;;;;12.40;10.50;;;14.30;99.90;;;;;;5116765;28;20419;-44
2022/09/25 06:58:47;;;;;;;13.20;11.10;;;14.30;99.90;;;;;;5117977;28;20538;-43
2022/09/25 07:01:13;;;;;;;14.57;13.07;;;14.30;99.90;;;;;;5118154;28;20238;-45
2022/09/25 07:03:45;;;;;;;14.50;13.03;;;14.30;99.90;;;;;;5117599;28;20257;-44
2022/09/25 07:06:20;;;;;;;13.17;11.87;;;14.30;99.90;;;;;;5118281;28;20572;-43
2022/09/25 07:08:49;;;;;;;12.90;11.60;;;14.40;99.90;;;;;;5098575;28;20523;-47
2022/09/25 07:11:25;;;;;;;14.07;11.23;;;14.60;99.90;;;;;;5120304;27;20505;-45
2022/09/25 07:13:53;;;;;;;12.27;10.77;;;14.70;99.90;;;;;;5118572;28;20426;-45
2022/09/25 07:16:21;;;;;;;12.40;10.63;;;14.80;99.90;;;;;;5116932;28;20821;-44
2022/09/25 07:18:47;;;;;;;11.83;10.50;;;15.00;99.90;;;;;;5119141;27;20513;-47
2022/09/25 07:21:17;;;;;;;11.67;10.13;;;15.10;99.90;;;;;;5138823;27;20418;-45
2022/09/25 07:23:46;;;;;;;10.90;9.77;;;15.20;99.90;;;;;;5137162;27;20429;-44
2022/09/25 07:26:21;;;;;;;10.80;9.70;;;15.40;99.90;;;;;;5134791;27;20885;-43
2022/09/25 07:28:57;;;;;;;9.83;8.83;;;15.50;99.90;;;;;;5117918;28;20934;-45
2022/09/25 07:31:25;;;;;;;12.17;10.87;;;15.70;99.90;;;;;;5120513;27;20441;-43
2022/09/25 07:33:51;;;;;;;11.73;9.80;;;15.80;99.80;;;;;;5137099;27;20664;-43
2022/09/25 07:36:18;;;;;;;11.33;9.63;;;15.90;99.60;;;;;;5136776;27;20422;-45
2022/09/25 07:38:47;;;;;;;10.00;9.00;;;16.00;99.40;;;;;;5133268;27;20437;-43
2022/09/25 07:41:13;;;;;;;9.83;8.83;;;16.10;99.10;;;;;;5115251;28;20816;-44
2022/09/25 07:43:39;;;;;;;11.03;9.93;;;16.20;98.80;;;;;;5114551;28;20444;-44
2022/09/25 07:46:05;;;;;;;9.60;8.70;;;16.30;98.60;;;;;;5115604;28;20666;-43
2022/09/25 07:48:31;;;;;;;8.93;8.03;;;16.40;98.70;;;;;;5115955;28;20569;-44
2022/09/25 07:51:04;;;;;;;8.67;7.87;;;16.50;98.60;;;;;;5115826;28;20407;-46
2022/09/25 07:53:30;;;;;;;8.40;7.60;;;16.60;98.40;;;;;;5117262;28;20426;-43
2022/09/25 07:56:00;;;;;;;8.60;7.70;;;16.70;98.30;;;;;;5115569;28;20459;-47
2022/09/25 07:58:26;;;;;;;9.00;8.10;;;16.80;98.10;;;;;;5093756;28;20182;-47
2022/09/25 08:00:59;;;;;;;7.37;6.67;;;16.90;97.80;;;;;;5113192;28;20495;-44
2022/09/25 08:03:25;;;;;;;8.37;7.57;;;17.00;97.70;;;;;;5115995;28;20437;-45
2022/09/25 08:06:02;;;;;;;7.97;7.27;;;17.00;97.50;;;;;;5114661;28;20702;-43
2022/09/25 08:08:28;;;;;;;8.10;7.40;;;17.10;97.40;;;;;;5114689;27;20462;-44
2022/09/25 08:11:02;;;;;;;7.10;6.40;;;17.20;97.20;;;;;;5114318;28;20424;-46
2022/09/25 08:13:28;;;;;;;7.93;7.23;;;17.30;96.90;;;;;;5115801;28;20431;-43
2022/09/25 08:15:55;;;;;;;6.10;5.60;;;17.40;96.70;;;;;;5113168;28;20417;-45
2022/09/25 08:18:20;;;;;;;6.50;5.73;;;17.50;96.60;;;;;;5113330;28;20709;-43
2022/09/25 08:20:46;;;;;;;6.37;5.77;;;17.60;96.20;;;;;;5114942;28;20419;-44
2022/09/25 08:23:12;;;;;;;5.80;5.30;;;17.70;96.10;;;;;;5113377;28;20189;-43
2022/09/25 08:25:38;;;;;;;7.63;6.50;;;17.90;95.90;;;;;;5113312;28;20744;-46
2022/09/25 08:28:03;;;;;;;6.20;5.70;;;18.00;95.70;;;;;;5115346;28;20434;-42
2022/09/25 08:30:29;;;;;;;6.00;5.40;;;18.20;95.60;;;;;;5116245;28;20550;-44
2022/09/25 08:32:55;;;;;;;5.57;5.07;;;18.30;95.30;;;;;;5115495;28;20203;-44
2022/09/25 08:35:20;;;;;;;5.97;5.47;;;18.50;95.00;;;;;;5123210;27;20418;-43
2022/09/25 08:37:47;;;;;;;5.50;5.00;;;18.70;94.50;;;;;;5137229;27;20178;-44
2022/09/25 08:40:18;;;;;;;5.87;5.17;;;18.80;94.40;;;;;;5132532;27;20204;-43
2022/09/25 08:42:45;;;;;;;5.37;4.87;;;19.00;94.00;;;;;;5082178;28;20519;-43
2022/09/25 08:50:56;;;;;;;5.43;4.87;;;19.50;92.90;;;;;;5114056;28;20410;-45
2022/09/25 08:53:25;;;;;;;4.80;4.40;;;19.70;92.50;;;;;;5114277;28;20434;-44
2022/09/25 08:58:43;;;;;;;4.63;4.23;;;20.20;91.80;;;;;;5099532;28;20425;-45
2022/09/25 09:01:13;;;;;;;4.20;3.90;;;20.50;91.30;;;;;;5096305;28;20468;-45
2022/09/25 09:04:05;;;;;;;4.83;4.20;;;20.70;90.90;;;;;;5122533;27;20484;-43
2022/09/25 09:06:32;;;;;;;4.53;4.13;;;20.80;90.00;;;;;;5135585;27;20408;-45
2022/09/25 09:09:04;;;;;;;4.37;3.97;;;20.90;88.50;;;;;;5119191;27;20892;-46
2022/09/25 09:11:35;;;;;;;4.50;4.10;;;21.10;88.70;;;;;;5133438;27;20565;-49
2022/09/25 09:14:06;;;;;;;4.13;3.73;;;21.30;87.30;;;;;;5133765;27;20720;-46
2022/09/25 09:17:02;;;;;;;4.07;3.67;;;21.50;87.20;;;;;;5115849;28;20415;-43
2022/09/25 09:19:28;;;;;;;4.43;4.03;;;21.70;86.50;;;;;;5135433;27;20728;-45
2022/09/25 09:22:10;;;;;;;3.90;3.60;;;21.70;85.60;;;;;;5134740;27;20821;-45
2022/09/25 09:25:08;;;;;;;4.63;4.13;;;21.60;85.30;;;;;;5136255;27;20200;-47
2022/09/25 09:28:04;;;;;;;4.57;4.17;;;21.50;84.80;;;;;;5135996;27;20414;-44
2022/09/25 09:31:04;;;;;;;4.43;4.03;;;21.20;84.30;;;;;;5136510;27;20836;-42
2022/09/25 09:33:53;;;;;;;4.00;3.70;;;21.00;84.00;;;;;;5107076;28;20429;-44
2022/09/25 09:36:26;;;;;;;4.97;4.57;;;20.90;83.20;;;;;;5115525;28;20420;-44
2022/09/25 09:39:31;;;;;;;4.70;4.23;;;21.10;82.90;;;;;;5098938;28;20834;-45
2022/09/25 09:42:08;;;;;;;4.83;4.33;;;21.30;82.80;;;;;;5111596;28;20433;-46
2022/09/25 09:45:19;;;;;;;5.17;4.73;;;21.80;81.70;;;;;;5116853;28;20835;-43
2022/09/25 09:48:07;;;;;;;4.20;3.90;;;22.20;80.30;;;;;;5032538;28;20439;-42
2022/09/25 09:50:46;;;;;;;4.83;4.43;;;22.50;78.40;;;;;;5117111;28;20476;-43
2022/09/25 09:53:21;;;;;;;3.33;3.03;;;22.60;76.80;;;;;;5099337;28;20424;-44
2022/09/25 09:55:49;;;;;;;3.57;3.20;;;22.90;76.90;;;;;;5116104;28;20936;-43
2022/09/25 09:58:49;;;;;;;4.10;3.30;;;23.10;76.00;;;;;;5097837;28;20444;-44
2022/09/25 10:01:17;;;;;;;3.60;3.23;;;23.40;75.50;;;;;;5117269;28;20414;-47
2022/09/25 10:03:43;;;;;;;6.60;4.07;;;23.70;75.10;;;;;;5116699;28;20497;-47
2022/09/25 10:06:11;;;;;;;5.87;5.07;;;23.80;74.70;;;;;;5136113;28;20428;-48
2022/09/25 10:08:37;;;;;;;6.17;5.00;;;23.60;75.70;;;;;;5135486;28;20421;-44
2022/09/25 10:11:14;;;;;;;5.00;4.50;;;23.50;75.80;;;;;;5135791;28;20408;-47
2022/09/25 10:13:40;;;;;;;5.37;4.30;;;23.40;74.50;;;;;;5117460;27;20419;-48
2022/09/25 10:16:10;;;;;;;5.20;4.70;;;23.40;74.50;;;;;;5120624;27;20514;-47
2022/09/25 10:18:42;;;;;;;7.30;5.07;;;23.40;75.20;;;;;;5120949;27;20849;-43
2022/09/25 10:21:18;;;;;;;5.30;4.83;;;23.30;76.50;;;;;;5119577;27;20894;-45
2022/09/25 10:23:52;;;;;;;7.27;5.83;;;23.30;75.70;;;;;;5120277;27;20456;-47
2022/09/25 10:26:30;;;;;;;6.30;5.70;;;23.30;74.60;;;;;;5103876;27;20423;-45
2022/09/25 10:29:00;;;;;;;5.93;5.30;;;23.20;74.60;;;;;;5119800;27;21059;-46
2022/09/25 10:31:38;;;;;;;6.07;5.47;;;23.50;73.60;;;;;;5118713;28;20429;-47
2022/09/25 10:34:05;;;;;;;5.63;5.20;;;23.60;72.50;;;;;;5102083;28;20404;-46
2022/09/25 10:36:31;;;;;;;5.67;4.80;;;24.00;71.40;;;;;;5120802;28;20512;-45
2022/09/25 10:38:58;;;;;;;5.10;4.70;;;24.30;70.20;;;;;;5120806;28;20574;-46
2022/09/25 10:41:23;;;;;;;5.47;4.97;;;24.60;68.30;;;;;;5126044;27;20425;-45
2022/09/25 10:43:58;;;;;;;5.27;4.87;;;24.90;66.30;;;;;;5104079;27;20416;-45
2022/09/25 10:52:06;;;;;;;4.73;3.87;;;24.20;64.80;;;;;;5139190;27;20408;-45
2022/09/25 10:54:33;;;;;;;5.20;4.80;;;23.80;66.10;;;;;;5120727;27;20456;-49
2022/09/25 10:56:58;;;;;;;4.87;4.47;;;23.60;66.90;;;;;;5130386;27;20455;-47
2022/09/25 10:59:24;;;;;;;5.00;4.60;;;23.40;67.50;;;;;;5139424;27;20454;-47
2022/09/25 11:01:52;;;;;;;5.97;5.37;;;23.20;68.00;;;;;;5139919;27;20179;-45
2022/09/25 11:04:24;;;;;;;6.13;5.50;;;23.00;67.30;;;;;;5138665;27;20577;-47
2022/09/25 11:06:53;;;;;;;6.60;6.00;;;22.80;67.90;;;;;;5140002;27;20445;-47
2022/09/25 11:09:22;;;;;;;5.80;5.30;;;22.50;68.80;;;;;;5137376;27;20460;-46
2022/09/25 11:11:48;;;;;;;6.43;5.17;;;22.40;69.60;;;;;;5120010;27;20403;-48
2022/09/25 11:14:31;;;;;;;6.23;5.73;;;22.40;69.80;;;;;;5118973;27;20420;-43
2022/09/25 11:16:57;;;;;;;6.50;5.83;;;22.50;69.50;;;;;;5135601;27;20956;-45
2022/09/25 11:19:30;;;;;;;6.43;5.83;;;22.50;69.60;;;;;;5104374;28;20519;-44
2022/09/25 11:22:09;;;;;;;7.50;5.40;;;22.50;68.80;;;;;;5109303;27;20507;-43
2022/09/25 11:25:10;;;;;;;6.70;6.10;;;22.60;68.70;;;;;;5132013;27;20871;-44
2022/09/25 11:27:46;;;;;;;6.57;6.00;;;23.00;68.00;;;;;;5054580;28;20427;-44
2022/09/25 11:30:17;;;;;;;6.87;6.37;;;23.40;67.20;;;;;;5126244;27;20483;-45
2022/09/25 11:32:49;;;;;;;6.60;6.00;;;23.50;66.20;;;;;;5137216;27;20473;-46
2022/09/25 11:35:36;;;;;;;6.40;5.80;;;23.60;66.30;;;;;;5138462;27;20423;-43
2022/09/25 11:41:40;;;;;;;7.23;6.63;;;23.60;64.60;;;;;;5133384;27;21096;-43
2022/09/25 11:44:26;;;;;;;7.23;6.57;;;23.20;64.20;;;;;;5127717;27;20467;-47
2022/09/25 11:47:10;;;;;;;9.20;8.30;;;22.70;64.60;;;;;;5112429;27;20503;-47
2022/09/25 11:49:38;;;;;;;9.90;8.90;;;22.30;65.80;;;;;;5135607;27;20548;-45
2022/09/25 11:52:16;;;;;;;10.20;9.40;;;21.80;67.00;;;;;;5118996;27;20437;-46
2022/09/25 11:55:10;;;;;;;11.30;10.30;;;21.30;68.20;;;;;;5127606;27;20456;-44
2022/09/25 11:57:51;;;;;;;13.00;11.70;;;20.80;69.80;;;;;;5127222;27;20858;-43
2022/09/25 12:00:18;;;;;;;12.60;11.40;;;20.40;71.70;;;;;;5126500;27;20485;-44
2022/09/25 12:02:47;;;;;;;13.33;12.13;;;20.20;73.50;;;;;;5138312;27;20429;-45
2022/09/25 12:05:29;;;;;;;13.17;11.97;;;20.10;75.10;;;;;;5120047;27;20518;-44
2022/09/25 12:08:17;;;;;;;11.93;10.93;;;20.00;77.40;;;;;;5122417;27;20457;-44
2022/09/25 12:11:20;;;;;;;12.90;11.73;;;19.90;77.80;;;;;;5126620;27;20464;-44
2022/09/25 12:13:58;;;;;;;12.43;11.33;;;19.90;79.00;;;;;;5124689;27;20413;-43
2022/09/25 12:16:27;;;;;;;11.67;10.47;;;19.80;80.00;;;;;;5116144;28;20425;-45
2022/09/25 12:19:05;;;;;;;12.10;11.10;;;19.80;80.80;;;;;;5124730;27;20460;-43
2022/09/25 12:22:07;;;;;;;11.97;10.87;;;19.80;81.20;;;;;;5125021;27;20746;-44
2022/09/25 12:24:39;;;;;;;10.37;9.47;;;19.80;81.90;;;;;;5080203;27;20412;-46
2022/09/25 12:27:16;;;;;;;10.70;9.80;;;19.70;82.60;;;;;;5125911;27;20424;-46
2022/09/25 12:29:45;;;;;;;10.33;9.40;;;19.70;83.20;;;;;;5129904;27;20457;-45
2022/09/25 12:32:29;;;;;;;11.63;10.40;;;19.70;83.80;;;;;;5119473;27;20417;-44
2022/09/25 12:34:55;;;;;;;10.70;9.60;;;19.80;84.30;;;;;;5135096;27;20506;-44
2022/09/25 12:37:23;;;;;;;10.90;9.90;;;19.90;84.40;;;;;;5127543;27;20782;-45
2022/09/25 12:40:01;;;;;;;11.50;10.30;;;19.90;84.30;;;;;;5123397;27;20462;-44
2022/09/25 12:42:39;;;;;;;10.07;9.13;;;19.90;84.20;;;;;;5120866;27;20459;-44
2022/09/25 12:45:30;;;;;;;12.13;11.13;;;19.90;84.30;;;;;;5129034;27;20438;-50
2022/09/25 12:48:01;;;;;;;10.27;9.33;;;19.90;84.90;;;;;;5123655;27;20684;-43
2022/09/25 12:50:32;;;;;;;10.87;9.87;;;20.00;84.90;;;;;;5097165;28;20456;-46
2022/09/25 12:53:12;;;;;;;12.03;11.00;;;20.20;84.50;;;;;;5115848;28;20524;-45
2022/09/25 12:55:42;;;;;;;11.60;10.60;;;20.50;84.00;;;;;;5116413;28;20940;-43
2022/09/25 12:58:21;;;;;;;10.00;9.10;;;20.80;83.40;;;;;;5115827;28;20528;-45
2022/09/25 13:01:10;;;;;;;10.93;9.93;;;21.20;82.70;;;;;;5120112;27;20502;-45
2022/09/25 13:04:04;;;;;;;10.30;9.03;;;21.60;81.40;;;;;;5121371;27;20504;-46
2022/09/25 13:06:33;;;;;;;10.10;9.20;;;22.20;78.00;;;;;;5117327;27;20432;-45
2022/09/25 13:09:21;;;;;;;9.57;8.63;;;22.70;76.30;;;;;;5117512;27;20464;-44
2022/09/25 13:11:51;;;;;;;9.50;8.70;;;23.20;74.50;;;;;;5113985;27;20435;-44
2022/09/25 13:14:56;;;;;;;9.37;8.57;;;24.00;72.20;;;;;;5099324;28;20430;-44
2022/09/25 13:17:22;;;;;;;8.67;7.97;;;25.90;68.50;;;;;;5110067;27;20430;-44
2022/09/25 13:19:48;;;;;;;9.70;8.90;;;28.70;61.20;;;;;;5115357;28;20424;-45
2022/09/25 13:22:20;;;;;;;10.07;9.17;;;30.70;55.80;;;;;;5115293;28;20410;-43
2022/09/25 13:25:02;;;;;;;10.13;9.17;;;31.30;51.70;;;;;;5102501;28;20320;-45
2022/09/25 13:27:31;;;;;;;9.77;8.97;;;31.20;49.70;;;;;;5126766;27;20421;-44